Terminal Aerodrome Forecast
Issued by NWS

Home | Current Version | Previous Version | Text Only | Print | Product List | Glossary Off
Versions: 1 2 3 4 5 6 7 8 9 10 11 12 13 14 15

927
FTUS43 KGRB 010148 CCA
TAFCWA
TAF COR
KCWA 010148Z 0102/0124 21004KT 6SM -RA SCT004 BKN008
      TEMPO 0102/0104 2SM -RASN BR BKN004
     FM010400 VRB03KT 5SM -RASN BR BKN004 OVC012
     FM010900 29006KT 6SM -SN BR OVC005
     FM011200 29007KT P6SM -SN OVC010
     FM011800 30009KT P6SM OVC020=

USA.gov is the U.S. government's official web portal to all federal, state and local government web resources and services.